createdAt,value
2018-01-20T00:00:05.846Z,93.50
2018-01-20T00:02:34.231Z,93.42
2018-01-20T00:05:02.536Z,93.26
2018-01-20T00:07:30.856Z,93.27
2018-01-20T00:10:14.800Z,93.58
2018-01-20T00:12:43.099Z,93.64
2018-01-20T00:15:11.403Z,93.67
2018-01-20T00:17:39.776Z,93.45
2018-01-20T00:20:08.842Z,94.05
2018-01-20T00:22:37.139Z,94.23
2018-01-20T00:25:06.240Z,94.12
2018-01-20T00:27:36.659Z,93.74
2018-01-20T00:30:04.976Z,93.77
2018-01-20T00:32:33.652Z,93.64
2018-01-20T00:35:02.008Z,93.40
2018-01-20T00:37:31.063Z,93.43
2018-01-20T00:39:59.412Z,93.21
2018-01-20T00:42:27.716Z,93.01
2018-01-20T00:44:56.035Z,92.65
2018-01-20T00:47:24.391Z,92.55
2018-01-20T00:49:52.700Z,92.37
2018-01-20T00:52:20.999Z,91.91
2018-01-20T00:54:49.363Z,92.02
2018-01-20T00:57:17.681Z,91.61
2018-01-20T00:59:45.975Z,90.99
2018-01-20T01:02:14.335Z,90.63
2018-01-20T01:04:42.649Z,90.64
2018-01-20T01:07:10.992Z,90.65
2018-01-20T01:09:39.425Z,90.23
2018-01-20T01:12:07.773Z,90.57
2018-01-20T01:14:36.088Z,90.78
2018-01-20T01:17:04.510Z,90.57
2018-01-20T01:19:34.580Z,91.04
2018-01-20T01:22:02.956Z,91.06
2018-01-20T01:24:31.641Z,91.17
2018-01-20T01:27:00.809Z,91.22
2018-01-20T01:29:29.169Z,91.42
2018-01-20T01:31:57.580Z,91.33
2018-01-20T01:34:25.916Z,91.54
2018-01-20T01:36:54.228Z,91.55
2018-01-20T01:39:23.417Z,91.70
2018-01-20T01:41:51.724Z,91.72
2018-01-20T01:44:20.036Z,91.82
2018-01-20T01:46:48.867Z,92.10
2018-01-20T01:49:17.172Z,92.14
2018-01-20T01:51:45.480Z,92.20
2018-01-20T01:54:13.994Z,92.39
2018-01-20T01:56:42.295Z,92.28
2018-01-20T01:59:11.367Z,92.36
2018-01-20T02:01:39.720Z,92.65
2018-01-20T02:04:08.023Z,92.57
2018-01-20T02:06:36.327Z,92.09
2018-01-20T02:09:04.675Z,91.97
2018-01-20T02:11:33.766Z,92.03
2018-01-20T02:14:02.080Z,92.27
2018-01-20T02:16:31.439Z,92.36
2018-01-20T02:18:59.919Z,92.38
2018-01-20T02:21:28.223Z,92.47
2018-01-20T02:23:56.587Z,92.33
2018-01-20T02:26:24.900Z,91.67
2018-01-20T02:28:53.967Z,91.31
2018-01-20T02:31:22.872Z,91.10
2018-01-20T02:33:52.031Z,90.73
2018-01-20T02:36:21.053Z,90.83
2018-01-20T02:38:49.380Z,90.92
2018-01-20T02:41:17.695Z,90.47
2018-01-20T02:43:46.023Z,90.17
2018-01-20T02:46:14.376Z,90.10
2018-01-20T02:48:43.443Z,90.11
2018-01-20T02:51:11.743Z,89.87
2018-01-20T02:53:40.860Z,90.26
2018-01-20T02:56:09.163Z,90.26
2018-01-20T02:58:37.512Z,90.31
2018-01-20T03:01:06.663Z,90.04
2018-01-20T03:03:34.968Z,90.01
2018-01-20T03:06:03.284Z,90.82
2018-01-20T03:08:32.036Z,91.01
2018-01-20T03:11:00.335Z,91.09
2018-01-20T03:13:29.042Z,91.58
2018-01-20T03:15:57.650Z,91.85
2018-01-20T03:18:25.959Z,91.73
2018-01-20T03:20:54.268Z,91.92
2018-01-20T03:23:22.883Z,91.70
2018-01-20T03:25:51.188Z,92.07
2018-01-20T03:28:19.587Z,92.18
2018-01-20T03:30:48.057Z,92.15
2018-01-20T03:33:16.367Z,92.10
2018-01-20T03:35:44.672Z,92.20
2018-01-20T03:38:13.054Z,92.01
2018-01-20T03:40:41.359Z,92.46
2018-01-20T03:43:10.438Z,92.89
2018-01-20T03:45:38.815Z,93.10
2018-01-20T03:48:07.172Z,92.98
2018-01-20T03:50:35.922Z,92.78
2018-01-20T03:53:04.275Z,92.72
2018-01-20T03:55:32.580Z,92.70
2018-01-20T03:58:01.655Z,92.55
2018-01-20T04:00:31.044Z,92.37
2018-01-20T04:02:59.347Z,92.25
2018-01-20T04:05:28.416Z,92.10
2018-01-20T04:07:57.243Z,91.97
2018-01-20T04:10:25.547Z,91.86
2018-01-20T04:12:53.851Z,91.34
2018-01-20T04:15:22.188Z,91.25
2018-01-20T04:17:50.487Z,91.17
2018-01-20T04:20:19.011Z,90.59
2018-01-20T04:22:47.347Z,90.74
2018-01-20T04:25:15.775Z,90.75
2018-01-20T04:27:44.133Z,90.20
2018-01-20T04:30:13.215Z,90.04
2018-01-20T04:32:41.524Z,90.02
2018-01-20T04:35:10.893Z,89.75
2018-01-20T04:37:39.268Z,89.20
2018-01-20T04:40:07.580Z,89.06
2018-01-20T04:42:37.289Z,88.61
2018-01-20T04:45:05.635Z,88.56
2018-01-20T04:47:33.973Z,87.98
2018-01-20T04:50:02.312Z,87.41
2018-01-20T04:52:30.638Z,87.61
2018-01-20T04:54:58.944Z,88.22
2018-01-20T04:57:27.351Z,88.36
2018-01-20T04:59:56.735Z,88.16
2018-01-20T05:02:25.048Z,88.10
2018-01-20T05:04:53.466Z,87.94
2018-01-20T05:07:21.782Z,88.20
2018-01-20T05:09:50.095Z,87.93
2018-01-20T05:12:18.798Z,88.08
2018-01-20T05:14:47.100Z,88.31
2018-01-20T05:17:15.408Z,88.54
2018-01-20T05:19:44.526Z,89.16
2018-01-20T05:22:12.832Z,90.25
2018-01-20T05:24:41.141Z,91.36
2018-01-20T05:27:10.193Z,91.98
2018-01-20T05:29:38.495Z,92.61
2018-01-20T05:32:06.804Z,92.71
2018-01-20T05:34:36.395Z,92.85
2018-01-20T05:37:04.707Z,92.93
2018-01-20T05:39:33.779Z,92.79
2018-01-20T05:42:02.128Z,93.36
2018-01-20T05:44:30.431Z,94.03
2018-01-20T05:46:58.743Z,94.64
2018-01-20T05:49:27.351Z,94.74
2018-01-20T05:51:55.649Z,94.92
2018-01-20T05:54:23.963Z,95.20
2018-01-20T05:56:52.477Z,95.29
2018-01-20T05:59:20.783Z,95.49
2018-01-20T06:01:49.284Z,95.59
2018-01-20T06:04:17.643Z,95.63
2018-01-20T06:06:45.963Z,95.71
2018-01-20T06:09:14.282Z,95.74
2018-01-20T06:11:42.628Z,95.78
2018-01-20T06:14:11.704Z,95.85
2018-01-20T06:16:40.781Z,95.88
2018-01-20T06:19:09.135Z,96.02
2018-01-20T06:21:37.451Z,96.24
2018-01-20T06:24:05.819Z,96.34
2018-01-20T06:26:34.294Z,96.24
2018-01-20T06:29:02.616Z,96.09
2018-01-20T06:31:30.927Z,95.91
2018-01-20T06:33:59.359Z,95.58
2018-01-20T06:36:27.680Z,95.97
2018-01-20T06:38:56.001Z,96.11
2018-01-20T06:41:24.339Z,96.07
2018-01-20T06:43:52.652Z,95.88
2018-01-20T06:46:20.959Z,95.90
2018-01-20T06:48:50.084Z,96.09
2018-01-20T06:51:18.950Z,95.99
2018-01-20T06:53:47.270Z,95.74
2018-01-20T06:56:15.635Z,95.42
2018-01-20T06:58:43.940Z,95.39
2018-01-20T07:01:12.247Z,95.34
2018-01-20T07:03:41.359Z,95.37
2018-01-20T07:06:09.673Z,95.34
2018-01-20T07:08:37.976Z,95.27
2018-01-20T07:11:06.339Z,95.33
2018-01-20T07:13:35.409Z,95.45
2018-01-20T07:16:03.723Z,95.42
2018-01-20T07:18:32.091Z,95.41
2018-01-20T07:21:00.400Z,95.36
2018-01-20T07:23:28.700Z,95.28
2018-01-20T07:25:57.107Z,95.36
2018-01-20T07:28:25.430Z,95.41
2018-01-20T07:30:53.743Z,95.40
2018-01-20T07:33:22.324Z,95.35
2018-01-20T07:35:50.632Z,95.28
2018-01-20T07:38:18.943Z,95.04
2018-01-20T07:40:47.280Z,94.78
2018-01-20T07:43:15.575Z,94.55
2018-01-20T07:45:43.871Z,94.51
2018-01-20T07:48:12.223Z,93.95
2018-01-20T07:50:40.526Z,93.73
2018-01-20T07:53:08.835Z,93.88
2018-01-20T07:55:37.551Z,93.87
2018-01-20T07:58:05.869Z,93.59
2018-01-20T08:00:34.172Z,93.56
2018-01-20T08:03:03.280Z,93.89
2018-01-20T08:05:31.575Z,94.35
2018-01-20T08:07:59.879Z,95.18
2018-01-20T08:10:28.231Z,95.65
2018-01-20T08:12:56.531Z,96.04
2018-01-20T08:15:24.834Z,95.58
2018-01-20T08:17:53.435Z,95.01
2018-01-20T08:20:22.200Z,94.41
2018-01-20T08:22:50.491Z,94.50
2018-01-20T08:25:19.603Z,94.54
2018-01-20T08:27:47.919Z,93.05
2018-01-20T08:30:16.859Z,93.18
2018-01-20T08:32:45.159Z,92.58
2018-01-20T08:35:13.464Z,91.97
2018-01-20T08:37:41.783Z,91.38
2018-01-20T08:40:10.849Z,90.05
2018-01-20T08:42:39.189Z,89.93
2018-01-20T08:45:07.488Z,90.08
2018-01-20T08:47:35.796Z,89.74
2018-01-20T08:50:04.492Z,89.46
2018-01-20T08:52:33.074Z,88.20
2018-01-20T08:55:01.380Z,87.15
2018-01-20T08:57:29.724Z,87.35
2018-01-20T08:59:58.832Z,87.49
2018-01-20T09:02:27.136Z,89.14
2018-01-20T09:04:55.478Z,88.84
2018-01-20T09:07:24.369Z,88.72
2018-01-20T09:09:52.666Z,87.41
2018-01-20T09:12:21.795Z,86.77
2018-01-20T09:14:50.086Z,86.47
2018-01-20T09:17:18.395Z,84.80
2018-01-20T09:19:46.747Z,83.94
2018-01-20T09:22:15.050Z,84.44
2018-01-20T09:24:44.059Z,84.37
2018-01-20T09:27:12.395Z,84.21
2018-01-20T09:29:41.332Z,84.71
2018-01-20T09:32:10.831Z,85.24
2018-01-20T09:34:39.900Z,83.85
2018-01-20T09:37:08.204Z,83.82
2018-01-20T09:39:37.975Z,81.80
2018-01-20T09:42:06.583Z,83.19
2018-01-20T09:44:34.884Z,84.46
2018-01-20T09:47:03.952Z,84.15
2018-01-20T09:49:32.331Z,82.88
2018-01-20T09:52:00.710Z,83.67
2018-01-20T09:54:29.220Z,84.78
2018-01-20T09:56:58.335Z,82.73
2018-01-20T09:59:26.644Z,84.45
2018-01-20T10:01:54.951Z,82.55
2018-01-20T10:04:23.288Z,82.93
2018-01-20T10:06:51.596Z,83.10
2018-01-20T10:09:20.287Z,83.06
2018-01-20T10:11:49.326Z,82.65
2018-01-20T10:14:17.669Z,82.39
2018-01-20T10:16:45.959Z,83.45
2018-01-20T10:19:14.579Z,82.63
2018-01-20T10:21:43.011Z,83.93
2018-01-20T10:24:11.338Z,83.03
2018-01-20T10:26:40.591Z,82.94
2018-01-20T10:29:09.333Z,82.33
2018-01-20T10:31:38.431Z,86.45
2018-01-20T10:34:07.387Z,83.35
2018-01-20T10:36:35.715Z,80.63
2018-01-20T10:39:04.123Z,80.58
2018-01-20T10:41:33.003Z,80.19
2018-01-20T10:44:01.369Z,81.19
2018-01-20T10:46:29.667Z,80.86
2018-01-20T10:48:58.275Z,79.77
2018-01-20T10:51:26.739Z,79.58
2018-01-20T10:53:56.567Z,80.27
2018-01-20T10:56:24.882Z,78.29
2018-01-20T10:58:53.327Z,79.55
2018-01-20T11:01:21.635Z,79.03
2018-01-20T11:03:49.934Z,78.33
2018-01-20T11:06:18.276Z,76.50
2018-01-20T11:08:46.582Z,78.03
2018-01-20T11:11:14.883Z,76.77
2018-01-20T11:13:43.239Z,77.88
2018-01-20T11:16:11.551Z,76.92
2018-01-20T11:18:40.715Z,78.08
2018-01-20T11:21:09.255Z,77.71
2018-01-20T11:23:38.468Z,77.17
2018-01-20T11:26:06.940Z,76.76
2018-01-20T11:28:35.403Z,76.63
2018-01-20T11:31:05.427Z,77.46
2018-01-20T11:33:33.853Z,76.12
2018-01-20T11:36:02.187Z,76.30
2018-01-20T11:38:30.529Z,76.08
2018-01-20T11:40:58.943Z,74.85
2018-01-20T11:43:27.319Z,74.26
2018-01-20T11:45:55.623Z,74.68
2018-01-20T11:48:24.471Z,75.94
2018-01-20T11:50:53.536Z,76.49
2018-01-20T11:53:21.835Z,77.23
2018-01-20T11:55:50.943Z,75.18
2018-01-20T11:58:20.311Z,76.19
2018-01-20T12:00:50.095Z,75.75
2018-01-20T12:03:19.096Z,75.67
2018-01-20T12:05:48.040Z,76.68
2018-01-20T12:08:16.720Z,76.15
2018-01-20T12:10:45.739Z,76.13
2018-01-20T12:13:14.046Z,76.24
2018-01-20T12:15:42.451Z,75.21
2018-01-20T12:18:10.932Z,77.57
2018-01-20T12:20:39.235Z,75.51
2018-01-20T12:23:07.544Z,74.88
2018-01-20T12:25:36.231Z,76.34
2018-01-20T12:28:04.619Z,75.27
2018-01-20T12:30:32.938Z,74.91
2018-01-20T12:33:01.929Z,73.84
2018-01-20T12:35:30.239Z,75.29
2018-01-20T12:37:58.535Z,74.75
2018-01-20T12:40:26.880Z,79.37
2018-01-20T12:42:56.558Z,74.25
2018-01-20T12:45:24.856Z,76.95
2018-01-20T12:47:53.188Z,73.26
2018-01-20T12:50:22.295Z,72.25
2018-01-20T12:52:51.398Z,72.35
2018-01-20T12:55:20.507Z,74.53
2018-01-20T12:57:48.795Z,78.00
2018-01-20T13:00:17.094Z,74.72
2018-01-20T13:02:45.431Z,74.95
2018-01-20T13:05:14.335Z,74.32
2018-01-20T13:07:42.650Z,76.08
2018-01-20T13:10:10.992Z,78.76
2018-01-20T13:12:39.301Z,79.05
2018-01-20T13:15:07.604Z,80.82
2018-01-20T13:17:35.944Z,80.10
2018-01-20T13:20:05.007Z,79.21
2018-01-20T13:22:33.308Z,81.29
2018-01-20T13:25:02.455Z,80.54
2018-01-20T13:27:31.279Z,82.41
2018-01-20T13:29:59.916Z,83.10
2018-01-20T13:32:28.680Z,84.29
2018-01-20T13:34:57.762Z,84.70
2018-01-20T13:37:26.886Z,82.96
2018-01-20T13:39:55.179Z,81.34
2018-01-20T13:42:23.537Z,82.87
2018-01-20T13:44:51.868Z,81.59
2018-01-20T13:47:20.759Z,82.51
2018-01-20T13:49:49.060Z,82.85
2018-01-20T13:52:18.167Z,83.18
2018-01-20T13:54:46.475Z,83.06
2018-01-20T13:57:14.831Z,84.05
2018-01-20T13:59:43.188Z,84.35
2018-01-20T14:02:11.895Z,83.57
2018-01-20T14:04:41.197Z,85.31
2018-01-20T14:07:09.507Z,85.44
2018-01-20T14:09:38.175Z,84.98
2018-01-20T14:12:06.508Z,84.91
2018-01-20T14:14:34.807Z,85.29
2018-01-20T14:17:03.143Z,86.19
2018-01-20T14:19:31.447Z,85.13
2018-01-20T14:22:00.519Z,85.72
2018-01-20T14:24:28.913Z,85.17
2018-01-20T14:26:57.227Z,86.11
2018-01-20T14:29:25.559Z,86.20
2018-01-20T14:31:54.147Z,86.32
2018-01-20T14:34:23.955Z,86.53
2018-01-20T14:36:52.296Z,86.61
2018-01-20T14:39:20.799Z,86.62
2018-01-20T14:41:49.112Z,87.25
2018-01-20T14:44:17.417Z,87.05
2018-01-20T14:46:45.763Z,87.14
2018-01-20T14:49:14.128Z,87.74
2018-01-20T14:51:42.455Z,87.78
2018-01-20T14:54:10.825Z,87.90
2018-01-20T14:56:39.176Z,86.66
2018-01-20T14:59:07.474Z,87.22
2018-01-20T15:01:35.814Z,87.21
2018-01-20T15:04:04.964Z,87.20
2018-01-20T15:06:34.359Z,88.42
2018-01-20T15:09:02.905Z,88.68
2018-01-20T15:11:31.847Z,89.35
2018-01-20T15:14:00.707Z,88.70
2018-01-20T15:16:29.895Z,88.60
2018-01-20T15:19:00.041Z,88.81
2018-01-20T15:21:28.380Z,89.01
2018-01-20T15:23:57.610Z,89.50
2018-01-20T15:26:26.474Z,89.37
2018-01-20T15:28:55.215Z,88.91
2018-01-20T15:31:24.264Z,88.95
2018-01-20T15:33:54.455Z,89.63
2018-01-20T15:36:23.674Z,89.17
2018-01-20T15:38:53.600Z,89.65
2018-01-20T15:41:22.412Z,89.46
2018-01-20T15:43:51.347Z,89.42
2018-01-20T15:46:20.063Z,89.10
2018-01-20T15:48:48.367Z,90.05
2018-01-20T15:51:16.714Z,90.08
2018-01-20T15:53:45.056Z,90.34
2018-01-20T15:56:13.357Z,91.13
2018-01-20T15:58:41.683Z,91.00
2018-01-20T16:01:10.273Z,90.19
2018-01-20T16:03:38.614Z,90.04
2018-01-20T16:06:07.312Z,90.23
2018-01-20T16:08:36.179Z,90.35
2018-01-20T16:11:04.526Z,90.09
2018-01-20T16:13:33.615Z,90.61
2018-01-20T16:16:01.968Z,91.21
2018-01-20T16:18:30.284Z,91.27
2018-01-20T16:20:59.109Z,90.99
2018-01-20T16:23:28.307Z,90.05
2018-01-20T16:25:56.713Z,90.11
2018-01-20T16:28:26.413Z,89.86
2018-01-20T16:30:55.535Z,90.22
2018-01-20T16:33:24.189Z,89.91
2018-01-20T16:35:53.421Z,90.54
2018-01-20T16:38:21.919Z,90.71
2018-01-20T16:40:50.548Z,90.95
2018-01-20T16:43:19.474Z,90.67
2018-01-20T16:45:47.877Z,91.08
2018-01-20T16:48:16.380Z,91.01
2018-01-20T16:50:44.888Z,91.67
2018-01-20T16:53:13.251Z,91.59
2018-01-20T16:55:42.353Z,91.36
2018-01-20T16:58:10.764Z,91.60
2018-01-20T17:00:39.083Z,91.45
2018-01-20T17:03:07.416Z,90.35
2018-01-20T17:05:36.543Z,89.74
2018-01-20T17:08:04.844Z,89.46
2018-01-20T17:10:33.191Z,90.37
2018-01-20T17:13:01.594Z,90.57
2018-01-20T17:15:29.893Z,90.91
2018-01-20T17:17:58.431Z,91.11
2018-01-20T17:20:28.663Z,90.15
2018-01-20T17:22:57.455Z,90.83
2018-01-20T17:25:26.717Z,91.31
2018-01-20T17:27:59.379Z,91.34
2018-01-20T17:30:27.736Z,91.56
2018-01-20T17:32:56.494Z,91.87
2018-01-20T17:35:25.639Z,91.99
2018-01-20T17:37:53.956Z,92.04
2018-01-20T17:40:22.255Z,91.16
2018-01-20T17:42:50.795Z,90.88
2018-01-20T17:45:19.728Z,91.28
2018-01-20T17:47:48.775Z,91.64
2018-01-20T17:50:17.658Z,91.82
2018-01-20T17:52:46.019Z,92.08
2018-01-20T17:55:14.400Z,92.77
2018-01-20T17:57:42.738Z,93.12
2018-01-20T18:00:11.095Z,93.70
2018-01-20T18:02:39.460Z,93.94
2018-01-20T18:05:07.814Z,93.86
2018-01-20T18:07:36.945Z,93.92
2018-01-20T18:10:05.395Z,93.77
2018-01-20T18:12:33.960Z,93.58
2018-01-20T18:15:02.324Z,92.71
2018-01-20T18:17:30.680Z,93.15
2018-01-20T18:19:59.051Z,93.38
2018-01-20T18:22:28.026Z,93.69
2018-01-20T18:24:56.639Z,94.01
2018-01-20T18:27:24.948Z,94.23
2018-01-20T18:29:53.255Z,94.40
2018-01-20T18:32:22.079Z,94.63
2018-01-20T18:34:50.396Z,94.83
2018-01-20T18:37:19.483Z,94.90
2018-01-20T18:39:48.667Z,95.00
2018-01-20T18:42:17.029Z,95.22
2018-01-20T18:44:45.860Z,95.16
2018-01-20T18:47:14.257Z,95.11
2018-01-20T18:49:43.018Z,95.11
2018-01-20T18:52:11.344Z,95.23
2018-01-20T18:54:40.413Z,95.20
2018-01-20T18:57:08.723Z,95.34
2018-01-20T18:59:37.225Z,95.42
2018-01-20T19:02:05.627Z,95.34
2018-01-20T19:04:34.303Z,95.47
2018-01-20T19:07:02.616Z,95.54
2018-01-20T19:09:31.039Z,95.72
2018-01-20T19:11:59.356Z,95.84
2018-01-20T19:14:27.719Z,95.79
2018-01-20T19:16:56.871Z,95.82
2018-01-20T19:19:25.239Z,95.76
2018-01-20T19:21:54.587Z,95.74
2018-01-20T19:24:23.595Z,95.68
2018-01-20T19:26:52.302Z,95.70
2018-01-20T19:29:21.987Z,95.69
2018-01-20T19:31:50.409Z,95.53
2018-01-20T19:34:18.739Z,95.47
2018-01-20T19:36:47.146Z,95.35
2018-01-20T19:39:15.511Z,95.28
2018-01-20T19:41:43.831Z,95.15
2018-01-20T19:44:12.776Z,95.10
2018-01-20T19:46:41.851Z,95.08
2018-01-20T19:49:10.968Z,95.35
2018-01-20T19:51:40.055Z,95.28
2018-01-20T19:54:09.536Z,95.33
2018-01-20T19:56:38.743Z,95.60
2018-01-20T19:59:07.164Z,95.45
2018-01-20T20:01:35.522Z,95.21
2018-01-20T20:04:04.270Z,94.92
2018-01-20T20:06:32.591Z,94.74
2018-01-20T20:09:01.563Z,94.58
2018-01-20T20:11:29.957Z,94.76
2018-01-20T20:13:58.314Z,94.79
2018-01-20T20:16:26.799Z,94.55
2018-01-20T20:18:55.166Z,94.67
2018-01-20T20:21:23.985Z,94.87
2018-01-20T20:23:54.773Z,94.90
2018-01-20T20:26:23.124Z,95.19
2018-01-20T20:28:53.335Z,95.35
2018-01-20T20:31:21.894Z,95.42
2018-01-20T20:33:50.976Z,95.20
2018-01-20T20:36:19.331Z,95.04
2018-01-20T20:38:47.707Z,94.95
2018-01-20T20:41:16.170Z,94.85
2018-01-20T20:43:44.565Z,94.74
2018-01-20T20:46:12.937Z,94.66
2018-01-20T20:48:41.285Z,94.71
2018-01-20T20:51:09.791Z,94.64
2018-01-20T20:53:38.156Z,94.66
2018-01-20T20:56:06.527Z,94.73
2018-01-20T20:58:34.955Z,95.04
2018-01-20T21:01:03.731Z,95.21
2018-01-20T21:03:32.199Z,95.48
2018-01-20T21:06:00.867Z,95.54
2018-01-20T21:08:31.765Z,95.95
2018-01-20T21:11:00.220Z,96.27
2018-01-20T21:13:30.651Z,96.26
2018-01-20T21:15:59.222Z,96.29
2018-01-20T21:18:27.534Z,96.02
2018-01-20T21:20:56.364Z,95.84
2018-01-20T21:23:28.188Z,95.82
2018-01-20T21:25:56.557Z,95.94
2018-01-20T21:28:25.522Z,96.16
2018-01-20T21:30:54.023Z,96.63
2018-01-20T21:33:22.379Z,97.01
2018-01-20T21:35:50.745Z,97.25
2018-01-20T21:38:21.353Z,97.18
2018-01-20T21:40:50.474Z,97.25
2018-01-20T21:43:19.854Z,97.01
2018-01-20T21:45:48.351Z,97.07
2018-01-20T21:48:16.974Z,97.01
2018-01-20T21:50:45.803Z,96.99
2018-01-20T21:53:14.736Z,96.85
2018-01-20T21:55:44.770Z,96.68
2018-01-20T21:58:13.081Z,96.52
2018-01-20T22:00:42.083Z,96.41
2018-01-20T22:03:10.879Z,96.39
2018-01-20T22:05:39.212Z,96.23
2018-01-20T22:08:07.597Z,96.17
2018-01-20T22:10:36.103Z,96.17
2018-01-20T22:13:05.134Z,96.10
2018-01-20T22:15:33.936Z,96.07
2018-01-20T22:18:02.248Z,96.04
2018-01-20T22:20:31.485Z,96.13
2018-01-20T22:23:00.276Z,96.03
2018-01-20T22:25:28.650Z,96.06
2018-01-20T22:27:57.659Z,95.78
2018-01-20T22:30:26.199Z,95.71
2018-01-20T22:32:55.287Z,95.47
2018-01-20T22:35:23.594Z,95.47
2018-01-20T22:37:52.723Z,95.42
2018-01-20T22:40:21.093Z,95.36
2018-01-20T22:42:49.431Z,95.28
2018-01-20T22:45:17.836Z,95.51
2018-01-20T22:47:47.354Z,95.46
2018-01-20T22:50:15.733Z,95.66
2018-01-20T22:52:44.755Z,95.77
2018-01-20T22:55:13.787Z,95.74
2018-01-20T22:57:42.180Z,95.79
2018-01-20T23:00:10.785Z,95.84
2018-01-20T23:02:40.159Z,95.87
2018-01-20T23:05:09.150Z,95.74
2018-01-20T23:07:37.523Z,95.55
2018-01-20T23:10:05.836Z,95.52
2018-01-20T23:12:34.280Z,95.51
2018-01-20T23:15:02.631Z,95.53
2018-01-20T23:17:30.994Z,95.66
2018-01-20T23:19:59.351Z,95.69
2018-01-20T23:22:27.708Z,95.64
2018-01-20T23:24:56.024Z,95.68
2018-01-20T23:27:24.877Z,95.61
2018-01-20T23:29:53.190Z,95.47
2018-01-20T23:32:21.500Z,95.60
2018-01-20T23:34:50.083Z,95.60
2018-01-20T23:37:18.879Z,95.48
2018-01-20T23:39:47.188Z,95.42
2018-01-20T23:42:15.559Z,95.29
2018-01-20T23:44:44.049Z,95.37
2018-01-20T23:47:12.371Z,95.18
2018-01-20T23:49:41.510Z,94.85
2018-01-20T23:52:09.827Z,94.83
2018-01-20T23:54:38.128Z,94.77
2018-01-20T23:57:06.908Z,94.86
2018-01-20T23:59:35.283Z,94.97
